createdAt,value
2023-02-19T00:00:49.976Z,100390.13
2023-02-19T00:03:58.948Z,100389.69
2023-02-19T00:07:01.526Z,100387.97
2023-02-19T00:10:04.145Z,100377.22
2023-02-19T00:13:06.879Z,100375.59
2023-02-19T00:16:12.180Z,100371.38
2023-02-19T00:19:19.410Z,100378.06
2023-02-19T00:22:22.072Z,100379.06
2023-02-19T00:25:24.568Z,100383.94
2023-02-19T00:28:27.077Z,100369.91
2023-02-19T00:31:33.381Z,100375.81
2023-02-19T00:34:36.372Z,100373.06
2023-02-19T00:37:38.645Z,100371.75
2023-02-19T00:40:41.098Z,100366.94
2023-02-19T00:43:43.631Z,100363.13
2023-02-19T00:46:47.921Z,100359.53
2023-02-19T00:49:50.167Z,100344.16
2023-02-19T00:52:52.664Z,100348.69
2023-02-19T00:55:55.390Z,100354.56
2023-02-19T00:58:58.460Z,100358.56
2023-02-19T01:02:01.013Z,100357.62
2023-02-19T01:05:04.075Z,100365.72
2023-02-19T01:08:06.564Z,100359.94
2023-02-19T01:11:10.311Z,100356.91
2023-02-19T01:14:13.053Z,100361.75
2023-02-19T01:17:15.976Z,100357.38
2023-02-19T01:20:18.519Z,100361.25
2023-02-19T01:23:21.137Z,100357.56
2023-02-19T01:26:26.529Z,100367.13
2023-02-19T01:29:29.164Z,100367.66
2023-02-19T01:32:32.767Z,100353.91
2023-02-19T01:35:38.685Z,100366.50
2023-02-19T01:38:41.477Z,100370.78
2023-02-19T01:41:44.071Z,100362.66
2023-02-19T01:44:46.612Z,100371.91
2023-02-19T01:47:58.429Z,100365.94
2023-02-19T01:51:06.176Z,100366.09
2023-02-19T01:54:12.237Z,100356.09
2023-02-19T01:57:20.975Z,100362.47
2023-02-19T02:00:24.809Z,100357.44
2023-02-19T02:03:29.477Z,100355.09
2023-02-19T02:06:39.316Z,100362.50
2023-02-19T02:10:00.843Z,100357.19
2023-02-19T02:13:03.358Z,100352.19
2023-02-19T02:19:23.638Z,100358.63
2023-02-19T02:22:35.056Z,100359.50
2023-02-19T02:26:11.266Z,100354.25
2023-02-19T02:29:17.632Z,100357.50
2023-02-19T02:32:26.587Z,100357.44
2023-02-19T02:35:35.066Z,100352.94
2023-02-19T02:38:41.613Z,100340.22
2023-02-19T02:41:45.804Z,100332.44
2023-02-19T02:45:07.879Z,100335.16
2023-02-19T02:48:35.177Z,100341.13
2023-02-19T02:51:41.559Z,100338.91
2023-02-19T02:55:02.910Z,100338.19
2023-02-19T02:58:07.640Z,100339.53
2023-02-19T03:01:42.871Z,100340.59
2023-02-19T03:05:17.701Z,100342.69
2023-02-19T03:08:30.181Z,100353.53
2023-02-19T03:11:55.184Z,100348.69
2023-02-19T03:15:21.524Z,100338.19
2023-02-19T03:18:46.833Z,100347.53
2023-02-19T03:22:00.676Z,100343.31
2023-02-19T03:25:33.109Z,100351.75
2023-02-19T03:28:59.569Z,100356.03
2023-02-19T03:32:18.337Z,100362.56
2023-02-19T03:35:27.693Z,100360.13
2023-02-19T03:38:39.870Z,100351.91
2023-02-19T03:41:55.979Z,100342.03
2023-02-19T03:45:25.532Z,100355.91
2023-02-19T03:48:35.780Z,100344.81
2023-02-19T03:51:49.984Z,100358.00
2023-02-19T03:55:03.113Z,100358.19
2023-02-19T03:58:32.669Z,100343.31
2023-02-19T04:01:44.554Z,100346.41
2023-02-19T04:04:59.202Z,100340.00
2023-02-19T04:08:16.557Z,100328.03
2023-02-19T04:11:22.535Z,100346.41
2023-02-19T04:14:31.785Z,100346.19
2023-02-19T04:17:39.257Z,100349.56
2023-02-19T04:20:44.639Z,100362.44
2023-02-19T04:23:48.120Z,100350.03
2023-02-19T04:26:51.379Z,100364.56
2023-02-19T04:29:54.188Z,100351.00
2023-02-19T04:32:56.385Z,100349.78
2023-02-19T04:35:59.877Z,100343.03
2023-02-19T04:39:02.093Z,100365.31
2023-02-19T04:42:05.556Z,100346.34
2023-02-19T04:45:08.261Z,100356.34
2023-02-19T04:48:11.277Z,100352.13
2023-02-19T04:51:13.751Z,100349.63
2023-02-19T04:54:16.642Z,100360.47
2023-02-19T04:57:18.998Z,100358.97
2023-02-19T05:00:22.635Z,100354.72
2023-02-19T05:03:24.830Z,100354.94
2023-02-19T05:06:27.549Z,100344.91
2023-02-19T05:09:29.736Z,100351.56
2023-02-19T05:12:32.528Z,100352.50
2023-02-19T05:15:35.651Z,100356.31
2023-02-19T05:18:38.453Z,100354.09
2023-02-19T05:21:40.772Z,100349.41
2023-02-19T05:24:43.506Z,100356.72
2023-02-19T05:27:45.883Z,100357.84
2023-02-19T05:30:51.287Z,100353.53
2023-02-19T05:33:56.815Z,100350.81
2023-02-19T05:36:59.433Z,100343.25
2023-02-19T05:40:01.977Z,100344.53
2023-02-19T05:43:05.320Z,100333.78
2023-02-19T05:46:08.204Z,100334.06
2023-02-19T05:49:11.069Z,100330.88
2023-02-19T05:52:13.376Z,100341.69
2023-02-19T05:55:16.536Z,100356.09
2023-02-19T05:58:18.761Z,100354.25
2023-02-19T06:01:23.222Z,100351.31
2023-02-19T06:04:25.773Z,100358.53
2023-02-19T06:07:28.044Z,100363.28
2023-02-19T06:10:31.645Z,100355.25
2023-02-19T06:13:34.186Z,100359.34
2023-02-19T06:16:36.684Z,100358.16
2023-02-19T06:19:39.209Z,100354.34
2023-02-19T06:22:41.790Z,100359.94
2023-02-19T06:25:44.028Z,100350.31
2023-02-19T06:28:51.193Z,100346.50
2023-02-19T06:31:53.963Z,100345.56
2023-02-19T06:34:56.867Z,100337.44
2023-02-19T06:37:59.166Z,100335.66
2023-02-19T06:41:04.180Z,100338.94
2023-02-19T06:44:06.721Z,100333.69
2023-02-19T06:47:09.768Z,100323.59
2023-02-19T06:50:12.091Z,100321.84
2023-02-19T06:53:14.754Z,100332.66
2023-02-19T06:56:35.701Z,100331.16
2023-02-19T06:59:38.220Z,100335.94
2023-02-19T07:02:40.391Z,100328.00
2023-02-19T07:05:43.878Z,100329.69
2023-02-19T07:08:46.201Z,100334.09
2023-02-19T07:11:49.194Z,100336.44
2023-02-19T07:14:51.405Z,100339.34
2023-02-19T07:17:53.957Z,100344.66
2023-02-19T07:21:01.648Z,100345.87
2023-02-19T07:24:05.691Z,100346.44
2023-02-19T07:27:07.998Z,100340.44
2023-02-19T07:30:10.954Z,100346.81
2023-02-19T07:33:13.130Z,100333.69
2023-02-19T07:36:17.706Z,100325.84
2023-02-19T07:39:19.967Z,100324.03
2023-02-19T07:42:22.824Z,100326.84
2023-02-19T07:45:25.324Z,100319.22
2023-02-19T07:48:27.902Z,100311.87
2023-02-19T07:51:30.290Z,100309.38
2023-02-19T07:54:33.150Z,100308.16
2023-02-19T07:57:35.530Z,100322.81
2023-02-19T08:00:39.028Z,100331.41
2023-02-19T08:03:42.807Z,100332.13
2023-02-19T08:06:45.125Z,100335.25
2023-02-19T08:10:07.946Z,100347.97
2023-02-19T08:13:25.268Z,100347.50
2023-02-19T08:16:41.085Z,100366.06
2023-02-19T08:19:44.952Z,100346.63
2023-02-19T08:22:47.778Z,100349.03
2023-02-19T08:25:51.837Z,100361.59
2023-02-19T08:28:54.674Z,100356.09
2023-02-19T08:31:56.800Z,100362.81
2023-02-19T08:34:59.337Z,100359.50
2023-02-19T08:38:02.091Z,100367.81
2023-02-19T08:41:07.346Z,100357.59
2023-02-19T08:44:10.255Z,100352.25
2023-02-19T08:47:12.811Z,100347.28
2023-02-19T08:50:15.905Z,100349.50
2023-02-19T08:53:18.392Z,100355.28
2023-02-19T08:56:20.605Z,100359.59
2023-02-19T08:59:23.919Z,100346.97
2023-02-19T09:02:26.246Z,100356.34
2023-02-19T09:05:28.690Z,100348.34
2023-02-19T09:08:31.229Z,100363.25
2023-02-19T09:11:33.756Z,100353.50
2023-02-19T09:14:36.447Z,100356.53
2023-02-19T09:17:39.295Z,100347.28
2023-02-19T09:20:41.454Z,100349.37
2023-02-19T09:23:43.947Z,100354.94
2023-02-19T09:26:49.705Z,100351.78
2023-02-19T09:29:52.846Z,100351.34
2023-02-19T09:32:55.066Z,100352.19
2023-02-19T09:36:01.615Z,100347.72
2023-02-19T09:39:06.691Z,100345.34
2023-02-19T09:42:27.210Z,100331.28
2023-02-19T09:45:29.583Z,100334.16
2023-02-19T09:48:32.546Z,100329.75
2023-02-19T09:51:37.902Z,100339.41
2023-02-19T09:54:43.677Z,100336.03
2023-02-19T09:57:47.068Z,100329.19
2023-02-19T10:00:55.940Z,100331.94
2023-02-19T10:03:58.643Z,100330.47
2023-02-19T10:07:03.815Z,100323.72
2023-02-19T10:10:15.522Z,100317.50
2023-02-19T10:13:30.783Z,100309.66
2023-02-19T10:16:33.885Z,100301.06
2023-02-19T10:19:36.648Z,100292.84
2023-02-19T10:22:39.153Z,100284.28
2023-02-19T10:25:46.981Z,100284.44
2023-02-19T10:28:49.715Z,100275.91
2023-02-19T10:32:13.673Z,100268.84
2023-02-19T10:35:16.710Z,100266.94
2023-02-19T10:38:20.790Z,100260.44
2023-02-19T10:41:25.949Z,100253.63
2023-02-19T10:44:52.022Z,100243.22
2023-02-19T10:47:54.693Z,100235.78
2023-02-19T10:51:04.956Z,100219.84
2023-02-19T10:54:24.989Z,100228.47
2023-02-19T10:57:30.555Z,100200.19
2023-02-19T11:00:33.746Z,100213.25
2023-02-19T11:03:36.032Z,100189.53
2023-02-19T11:06:39.068Z,100192.66
2023-02-19T11:09:45.440Z,100186.31
2023-02-19T11:12:50.497Z,100179.44
2023-02-19T11:15:55.163Z,100177.97
2023-02-19T11:18:58.329Z,100170.78
2023-02-19T11:22:01.626Z,100166.06
2023-02-19T11:25:17.862Z,100182.31
2023-02-19T11:28:26.837Z,100165.81
2023-02-19T11:31:32.726Z,100167.91
2023-02-19T11:34:35.611Z,100170.88
2023-02-19T11:37:55.890Z,100159.66
2023-02-19T11:41:14.692Z,100148.87
2023-02-19T11:44:39.269Z,100138.31
2023-02-19T11:47:57.939Z,100118.94
2023-02-19T11:51:03.784Z,100130.72
2023-02-19T11:54:37.485Z,100122.94
2023-02-19T11:58:24.587Z,100124.63
2023-02-19T12:02:05.061Z,100122.09
2023-02-19T12:05:41.848Z,100102.16
2023-02-19T12:09:14.864Z,100092.63
2023-02-19T12:12:29.549Z,100102.75
2023-02-19T12:18:56.411Z,100072.38
2023-02-19T12:22:17.053Z,100079.44
2023-02-19T12:25:41.888Z,100063.87
2023-02-19T12:28:56.124Z,100088.59
2023-02-19T12:32:09.847Z,100071.69
2023-02-19T12:35:21.067Z,100073.47
2023-02-19T12:38:45.102Z,100078.72
2023-02-19T12:42:07.028Z,100074.87
2023-02-19T12:45:20.714Z,100065.41
2023-02-19T12:48:47.479Z,100079.62
2023-02-19T12:51:57.482Z,100066.72
2023-02-19T12:55:11.657Z,100087.87
2023-02-19T12:58:44.646Z,100099.84
2023-02-19T13:01:58.116Z,100118.63
2023-02-19T13:05:21.092Z,100124.25
2023-02-19T13:08:35.583Z,100119.91
2023-02-19T13:12:17.725Z,100111.41
2023-02-19T13:15:32.815Z,100104.19
2023-02-19T13:18:41.898Z,100082.97
2023-02-19T13:22:09.881Z,100075.34
2023-02-19T13:25:14.805Z,100087.53
2023-02-19T13:28:59.353Z,100071.97
2023-02-19T13:32:24.437Z,100061.28
2023-02-19T13:35:50.989Z,100072.00
2023-02-19T13:38:57.324Z,100061.13
2023-02-19T13:42:00.122Z,100047.75
2023-02-19T13:45:06.223Z,100044.78
2023-02-19T13:48:26.474Z,100074.03
2023-02-19T13:51:28.863Z,100088.75
2023-02-19T13:54:39.973Z,100100.56
2023-02-19T13:57:42.536Z,100107.16
2023-02-19T14:00:50.768Z,100133.22
2023-02-19T14:03:54.463Z,100148.63
2023-02-19T14:07:05.669Z,100179.00
2023-02-19T14:10:13.742Z,100167.31
2023-02-19T14:13:50.699Z,100167.88
2023-02-19T14:17:04.961Z,100191.41
2023-02-19T14:20:10.316Z,100200.28
2023-02-19T14:23:30.890Z,100215.91
2023-02-19T14:26:34.533Z,100218.19
2023-02-19T14:29:37.577Z,100215.34
2023-02-19T14:32:43.596Z,100220.59
2023-02-19T14:35:52.556Z,100224.16
2023-02-19T14:39:02.489Z,100239.19
2023-02-19T14:42:12.320Z,100241.84
2023-02-19T14:45:17.967Z,100254.41
2023-02-19T14:48:28.876Z,100253.69
2023-02-19T14:51:37.164Z,100253.81
2023-02-19T14:55:01.662Z,100250.00
2023-02-19T14:58:13.459Z,100250.22
2023-02-19T15:01:28.815Z,100243.72
2023-02-19T15:04:37.054Z,100237.00
2023-02-19T15:07:41.894Z,100249.91
2023-02-19T15:10:44.886Z,100258.41
2023-02-19T15:13:54.450Z,100281.84
2023-02-19T15:17:04.088Z,100295.81
2023-02-19T15:20:11.517Z,100299.25
2023-02-19T15:23:20.949Z,100294.84
2023-02-19T15:26:34.306Z,100298.16
2023-02-19T15:29:46.211Z,100293.31
2023-02-19T15:32:54.716Z,100298.25
2023-02-19T15:36:04.712Z,100301.72
2023-02-19T15:39:07.360Z,100293.47
2023-02-19T15:42:15.750Z,100294.06
2023-02-19T15:45:41.534Z,100302.44
2023-02-19T15:49:09.753Z,100305.84
2023-02-19T15:52:22.620Z,100288.91
2023-02-19T15:55:50.822Z,100273.78
2023-02-19T15:59:24.366Z,100282.81
2023-02-19T16:02:27.837Z,100270.44
2023-02-19T16:05:36.966Z,100277.63
2023-02-19T16:08:40.490Z,100285.88
2023-02-19T16:12:22.021Z,100298.53
2023-02-19T16:15:24.626Z,100306.84
2023-02-19T16:18:28.940Z,100321.63
2023-02-19T16:21:32.071Z,100316.94
2023-02-19T16:24:40.694Z,100305.50
2023-02-19T16:27:44.377Z,100326.59
2023-02-19T16:30:59.100Z,100325.19
2023-02-19T16:34:17.675Z,100339.88
2023-02-19T16:37:41.042Z,100320.19
2023-02-19T16:40:50.832Z,100339.94
2023-02-19T16:43:53.318Z,100348.28
2023-02-19T16:47:02.045Z,100383.19
2023-02-19T16:50:13.265Z,100375.87
2023-02-19T16:53:20.329Z,100372.53
2023-02-19T16:56:23.336Z,100378.44
2023-02-19T16:59:25.508Z,100361.16
2023-02-19T17:02:28.871Z,100364.00
2023-02-19T17:05:32.560Z,100370.66
2023-02-19T17:08:38.504Z,100381.12
2023-02-19T17:11:44.516Z,100383.78
2023-02-19T17:14:47.334Z,100390.31
2023-02-19T17:17:49.570Z,100382.44
2023-02-19T17:21:05.114Z,100387.13
2023-02-19T17:24:07.941Z,100381.06
2023-02-19T17:27:12.332Z,100394.22
2023-02-19T17:30:31.405Z,100383.25
2023-02-19T17:33:34.281Z,100379.34
2023-02-19T17:36:37.977Z,100386.47
2023-02-19T17:39:40.467Z,100392.91
2023-02-19T17:42:42.993Z,100402.53
2023-02-19T17:45:45.828Z,100402.25
2023-02-19T17:48:49.050Z,100413.34
2023-02-19T17:51:51.924Z,100420.72
2023-02-19T17:54:54.479Z,100423.87
2023-02-19T17:57:57.307Z,100440.84
2023-02-19T18:00:59.535Z,100432.38
2023-02-19T18:04:02.734Z,100442.19
2023-02-19T18:07:05.145Z,100438.81
2023-02-19T18:10:08.384Z,100430.37
2023-02-19T18:13:11.013Z,100420.37
2023-02-19T18:16:15.658Z,100433.47
2023-02-19T18:19:18.452Z,100437.94
2023-02-19T18:22:21.460Z,100423.41
2023-02-19T18:25:24.813Z,100444.03
2023-02-19T18:28:28.232Z,100462.00
2023-02-19T18:31:34.329Z,100478.31
2023-02-19T18:34:38.008Z,100489.44
2023-02-19T18:37:40.559Z,100489.94
2023-02-19T18:40:43.865Z,100506.31
2023-02-19T18:43:47.497Z,100521.13
2023-02-19T18:46:50.728Z,100510.06
2023-02-19T18:49:55.707Z,100518.28
2023-02-19T18:52:58.323Z,100535.69
2023-02-19T18:56:01.997Z,100543.34
2023-02-19T18:59:04.644Z,100550.56
2023-02-19T19:02:09.286Z,100559.94
2023-02-19T19:05:13.613Z,100579.19
2023-02-19T19:08:15.854Z,100567.75
2023-02-19T19:11:19.669Z,100578.88
2023-02-19T19:14:22.335Z,100589.44
2023-02-19T19:17:24.931Z,100603.09
2023-02-19T19:20:27.904Z,100592.84
2023-02-19T19:23:31.428Z,100590.47
2023-02-19T19:26:34.731Z,100585.09
2023-02-19T19:29:37.759Z,100600.53
2023-02-19T19:32:40.201Z,100592.00
2023-02-19T19:35:43.494Z,100593.72
2023-02-19T19:38:46.932Z,100602.06
2023-02-19T19:41:54.876Z,100606.25
2023-02-19T19:44:57.077Z,100600.84
2023-02-19T19:47:59.658Z,100594.88
2023-02-19T19:51:01.947Z,100600.75
2023-02-19T19:54:05.085Z,100602.09
2023-02-19T19:57:07.918Z,100621.53
2023-02-19T20:00:14.568Z,100631.47
2023-02-19T20:03:18.450Z,100613.94
2023-02-19T20:06:29.838Z,100621.31
2023-02-19T20:09:32.778Z,100628.44
2023-02-19T20:12:34.920Z,100638.75
2023-02-19T20:15:37.473Z,100645.03
2023-02-19T20:18:40.466Z,100642.41
2023-02-19T20:21:51.279Z,100662.72
2023-02-19T20:24:54.677Z,100671.09
2023-02-19T20:27:57.741Z,100676.31
2023-02-19T20:31:00.508Z,100692.19
2023-02-19T20:34:03.576Z,100690.75
2023-02-19T20:37:07.291Z,100713.81
2023-02-19T20:40:11.376Z,100721.03
2023-02-19T20:43:13.736Z,100724.78
2023-02-19T20:46:16.770Z,100715.81
2023-02-19T20:49:21.770Z,100728.50
2023-02-19T20:52:24.836Z,100742.63
2023-02-19T20:55:28.040Z,100754.31
2023-02-19T20:58:30.867Z,100759.28
2023-02-19T21:01:33.123Z,100764.81
2023-02-19T21:04:38.623Z,100766.59
2023-02-19T21:07:41.129Z,100764.56
2023-02-19T21:10:45.514Z,100775.78
2023-02-19T21:13:48.271Z,100776.00
2023-02-19T21:16:51.361Z,100773.25
2023-02-19T21:19:53.664Z,100779.53
2023-02-19T21:22:56.826Z,100774.41
2023-02-19T21:26:04.446Z,100762.09
2023-02-19T21:29:11.047Z,100778.81
2023-02-19T21:32:13.899Z,100778.16
2023-02-19T21:35:17.537Z,100778.47
2023-02-19T21:38:20.061Z,100781.66
2023-02-19T21:41:25.941Z,100786.34
2023-02-19T21:44:28.499Z,100778.84
2023-02-19T21:47:31.686Z,100789.63
2023-02-19T21:50:34.241Z,100792.59
2023-02-19T21:53:37.442Z,100790.09
2023-02-19T21:56:40.607Z,100796.84
2023-02-19T21:59:43.372Z,100783.94
2023-02-19T22:02:45.859Z,100804.97
2023-02-19T22:05:48.984Z,100806.78
2023-02-19T22:08:52.257Z,100806.91
2023-02-19T22:11:56.119Z,100804.75
2023-02-19T22:14:58.315Z,100817.75
2023-02-19T22:18:01.104Z,100800.47
2023-02-19T22:21:05.118Z,100822.47
2023-02-19T22:24:07.995Z,100822.12
2023-02-19T22:27:10.360Z,100826.56
2023-02-19T22:30:13.403Z,100830.97
2023-02-19T22:33:16.059Z,100829.44
2023-02-19T22:36:23.255Z,100839.12
2023-02-19T22:39:27.029Z,100837.56
2023-02-19T22:42:29.895Z,100831.84
2023-02-19T22:45:32.437Z,100844.84
2023-02-19T22:48:35.299Z,100850.25
2023-02-19T22:51:37.852Z,100853.84
2023-02-19T22:54:41.532Z,100852.97
2023-02-19T22:57:46.112Z,100858.09
2023-02-19T23:00:50.121Z,100857.16
2023-02-19T23:03:57.736Z,100856.84
2023-02-19T23:07:00.644Z,100863.41
2023-02-19T23:10:03.404Z,100864.75
2023-02-19T23:13:06.088Z,100869.44
2023-02-19T23:16:09.408Z,100880.87
2023-02-19T23:19:15.506Z,100877.53
2023-02-19T23:22:18.145Z,100900.03
2023-02-19T23:25:20.961Z,100903.62
2023-02-19T23:28:23.685Z,100901.87
2023-02-19T23:31:30.032Z,100912.28
2023-02-19T23:34:32.555Z,100935.03
2023-02-19T23:37:35.756Z,100931.63
2023-02-19T23:40:38.615Z,100935.13
2023-02-19T23:43:42.021Z,100943.25
2023-02-19T23:46:45.304Z,100945.75
2023-02-19T23:49:48.690Z,100939.03
2023-02-19T23:52:51.176Z,100946.47
2023-02-19T23:55:54.039Z,100951.97
2023-02-19T23:58:56.839Z,100962.44
